sensor_id;sensor_type;location;lat;lon;timestamp;temperature;humidity
64937;SHT30;51452;47.698;19.050;2022-07-22T00:01:43;27.23;37.08
64937;SHT30;51452;47.698;19.050;2022-07-22T00:04:08;27.18;36.65
64937;SHT30;51452;47.698;19.050;2022-07-22T00:06:34;27.20;36.73
64937;SHT30;51452;47.698;19.050;2022-07-22T00:08:59;27.20;36.45
64937;SHT30;51452;47.698;19.050;2022-07-22T00:11:24;27.13;36.59
64937;SHT30;51452;47.698;19.050;2022-07-22T00:13:50;27.13;36.27
64937;SHT30;51452;47.698;19.050;2022-07-22T00:16:16;27.11;36.35
64937;SHT30;51452;47.698;19.050;2022-07-22T00:18:42;27.07;36.58
64937;SHT30;51452;47.698;19.050;2022-07-22T00:21:07;27.03;36.08
64937;SHT30;51452;47.698;19.050;2022-07-22T00:23:33;27.02;36.43
64937;SHT30;51452;47.698;19.050;2022-07-22T00:25:58;27.00;36.70
64937;SHT30;51452;47.698;19.050;2022-07-22T00:28:24;26.96;36.57
64937;SHT30;51452;47.698;19.050;2022-07-22T00:30:49;26.95;36.62
64937;SHT30;51452;47.698;19.050;2022-07-22T00:33:14;26.87;36.64
64937;SHT30;51452;47.698;19.050;2022-07-22T00:35:40;26.86;36.53
64937;SHT30;51452;47.698;19.050;2022-07-22T00:38:05;26.83;37.67
64937;SHT30;51452;47.698;19.050;2022-07-22T00:40:30;26.82;35.02
64937;SHT30;51452;47.698;19.050;2022-07-22T00:42:56;26.68;33.98
64937;SHT30;51452;47.698;19.050;2022-07-22T00:45:21;26.68;34.12
64937;SHT30;51452;47.698;19.050;2022-07-22T00:47:47;26.72;33.99
64937;SHT30;51452;47.698;19.050;2022-07-22T00:50:12;26.63;34.09
64937;SHT30;51452;47.698;19.050;2022-07-22T00:52:41;26.72;34.57
64937;SHT30;51452;47.698;19.050;2022-07-22T00:55:07;26.73;35.54
64937;SHT30;51452;47.698;19.050;2022-07-22T00:57:32;26.72;35.73
64937;SHT30;51452;47.698;19.050;2022-07-22T00:59:57;26.69;36.24
64937;SHT30;51452;47.698;19.050;2022-07-22T01:02:23;26.65;36.90
64937;SHT30;51452;47.698;19.050;2022-07-22T01:04:48;26.60;37.59
64937;SHT30;51452;47.698;19.050;2022-07-22T01:07:14;26.53;37.28
64937;SHT30;51452;47.698;19.050;2022-07-22T01:09:45;26.52;37.30
64937;SHT30;51452;47.698;19.050;2022-07-22T01:12:11;26.52;36.63
64937;SHT30;51452;47.698;19.050;2022-07-22T01:14:37;26.51;36.56
64937;SHT30;51452;47.698;19.050;2022-07-22T01:17:02;26.48;37.34
64937;SHT30;51452;47.698;19.050;2022-07-22T01:19:28;26.42;37.06
64937;SHT30;51452;47.698;19.050;2022-07-22T01:21:54;26.36;37.33
64937;SHT30;51452;47.698;19.050;2022-07-22T01:24:19;26.35;37.12
64937;SHT30;51452;47.698;19.050;2022-07-22T01:26:45;26.35;37.16
64937;SHT30;51452;47.698;19.050;2022-07-22T01:29:10;26.35;40.00
64937;SHT30;51452;47.698;19.050;2022-07-22T01:31:36;26.31;39.52
64937;SHT30;51452;47.698;19.050;2022-07-22T01:34:01;26.24;41.06
64937;SHT30;51452;47.698;19.050;2022-07-22T01:36:27;26.13;40.72
64937;SHT30;51452;47.698;19.050;2022-07-22T01:38:53;26.02;39.69
64937;SHT30;51452;47.698;19.050;2022-07-22T01:41:18;25.98;38.79
64937;SHT30;51452;47.698;19.050;2022-07-22T01:43:43;26.00;38.48
64937;SHT30;51452;47.698;19.050;2022-07-22T01:46:09;26.02;38.21
64937;SHT30;51452;47.698;19.050;2022-07-22T01:48:34;26.02;41.03
64937;SHT30;51452;47.698;19.050;2022-07-22T01:51:00;26.01;41.80
64937;SHT30;51452;47.698;19.050;2022-07-22T01:53:25;25.97;41.07
64937;SHT30;51452;47.698;19.050;2022-07-22T01:55:51;25.90;36.41
64937;SHT30;51452;47.698;19.050;2022-07-22T01:58:17;25.93;38.58
64937;SHT30;51452;47.698;19.050;2022-07-22T02:00:42;25.85;41.49
64937;SHT30;51452;47.698;19.050;2022-07-22T02:03:08;25.74;43.34
64937;SHT30;51452;47.698;19.050;2022-07-22T02:05:35;25.64;44.11
64937;SHT30;51452;47.698;19.050;2022-07-22T02:08:03;25.49;44.20
64937;SHT30;51452;47.698;19.050;2022-07-22T02:10:29;25.40;44.90
64937;SHT30;51452;47.698;19.050;2022-07-22T02:12:56;25.29;46.06
64937;SHT30;51452;47.698;19.050;2022-07-22T02:15:22;25.20;46.19
64937;SHT30;51452;47.698;19.050;2022-07-22T02:17:47;25.14;48.00
64937;SHT30;51452;47.698;19.050;2022-07-22T02:20:12;24.99;49.06
64937;SHT30;51452;47.698;19.050;2022-07-22T02:22:38;24.88;49.29
64937;SHT30;51452;47.698;19.050;2022-07-22T02:25:04;24.78;49.44
64937;SHT30;51452;47.698;19.050;2022-07-22T02:27:29;24.69;48.75
64937;SHT30;51452;47.698;19.050;2022-07-22T02:29:55;24.58;48.67
64937;SHT30;51452;47.698;19.050;2022-07-22T02:32:20;24.44;49.23
64937;SHT30;51452;47.698;19.050;2022-07-22T02:34:46;24.34;49.75
64937;SHT30;51452;47.698;19.050;2022-07-22T02:37:11;24.27;49.32
64937;SHT30;51452;47.698;19.050;2022-07-22T02:39:36;24.20;49.32
64937;SHT30;51452;47.698;19.050;2022-07-22T02:42:02;24.17;50.23
64937;SHT30;51452;47.698;19.050;2022-07-22T02:44:27;24.16;49.04
64937;SHT30;51452;47.698;19.050;2022-07-22T02:46:53;24.13;48.80
64937;SHT30;51452;47.698;19.050;2022-07-22T02:49:18;24.14;47.83
64937;SHT30;51452;47.698;19.050;2022-07-22T02:51:43;24.10;48.80
64937;SHT30;51452;47.698;19.050;2022-07-22T02:54:09;24.09;49.81
64937;SHT30;51452;47.698;19.050;2022-07-22T02:56:34;24.07;49.49
64937;SHT30;51452;47.698;19.050;2022-07-22T02:58:59;24.05;48.99
64937;SHT30;51452;47.698;19.050;2022-07-22T03:01:25;24.03;48.47
64937;SHT30;51452;47.698;19.050;2022-07-22T03:03:50;24.00;49.28
64937;SHT30;51452;47.698;19.050;2022-07-22T03:06:16;23.95;49.23
64937;SHT30;51452;47.698;19.050;2022-07-22T03:08:41;23.97;50.16
64937;SHT30;51452;47.698;19.050;2022-07-22T03:11:07;23.99;48.55
64937;SHT30;51452;47.698;19.050;2022-07-22T03:13:32;23.97;48.24
64937;SHT30;51452;47.698;19.050;2022-07-22T03:15:58;23.97;48.48
64937;SHT30;51452;47.698;19.050;2022-07-22T03:18:23;23.96;49.50
64937;SHT30;51452;47.698;19.050;2022-07-22T03:20:48;23.90;49.94
64937;SHT30;51452;47.698;19.050;2022-07-22T03:23:14;23.83;48.97
64937;SHT30;51452;47.698;19.050;2022-07-22T03:25:40;23.85;48.64
64937;SHT30;51452;47.698;19.050;2022-07-22T03:28:06;23.83;48.77
64937;SHT30;51452;47.698;19.050;2022-07-22T03:30:32;23.85;48.41
64937;SHT30;51452;47.698;19.050;2022-07-22T03:32:57;23.89;48.49
64937;SHT30;51452;47.698;19.050;2022-07-22T03:35:22;23.93;47.66
64937;SHT30;51452;47.698;19.050;2022-07-22T03:37:48;23.95;46.98
64937;SHT30;51452;47.698;19.050;2022-07-22T03:40:14;24.02;47.17
64937;SHT30;51452;47.698;19.050;2022-07-22T03:42:39;24.03;47.49
64937;SHT30;51452;47.698;19.050;2022-07-22T03:45:05;24.12;48.58
64937;SHT30;51452;47.698;19.050;2022-07-22T03:47:30;24.10;48.57
64937;SHT30;51452;47.698;19.050;2022-07-22T03:49:56;24.10;48.81
64937;SHT30;51452;47.698;19.050;2022-07-22T03:52:23;24.10;48.73
64937;SHT30;51452;47.698;19.050;2022-07-22T03:54:49;24.03;48.26
64937;SHT30;51452;47.698;19.050;2022-07-22T03:57:14;24.06;48.83
64937;SHT30;51452;47.698;19.050;2022-07-22T03:59:40;24.02;49.34
64937;SHT30;51452;47.698;19.050;2022-07-22T04:02:05;24.05;49.84
64937;SHT30;51452;47.698;19.050;2022-07-22T04:04:30;23.99;50.00
64937;SHT30;51452;47.698;19.050;2022-07-22T04:06:56;23.99;49.38
64937;SHT30;51452;47.698;19.050;2022-07-22T04:09:22;24.02;48.25
64937;SHT30;51452;47.698;19.050;2022-07-22T04:11:47;24.07;49.94
64937;SHT30;51452;47.698;19.050;2022-07-22T04:14:13;24.13;49.80
64937;SHT30;51452;47.698;19.050;2022-07-22T04:16:38;24.20;50.57
64937;SHT30;51452;47.698;19.050;2022-07-22T04:19:04;24.26;50.47
64937;SHT30;51452;47.698;19.050;2022-07-22T04:21:30;24.37;47.86
64937;SHT30;51452;47.698;19.050;2022-07-22T04:23:56;24.45;52.41
64937;SHT30;51452;47.698;19.050;2022-07-22T04:26:21;24.54;51.63
64937;SHT30;51452;47.698;19.050;2022-07-22T04:28:47;24.64;51.94
64937;SHT30;51452;47.698;19.050;2022-07-22T04:31:12;24.74;52.29
64937;SHT30;51452;47.698;19.050;2022-07-22T04:33:38;24.81;51.40
64937;SHT30;51452;47.698;19.050;2022-07-22T04:36:04;24.94;51.97
64937;SHT30;51452;47.698;19.050;2022-07-22T04:38:29;25.02;51.87
64937;SHT30;51452;47.698;19.050;2022-07-22T04:40:55;25.14;52.72
64937;SHT30;51452;47.698;19.050;2022-07-22T04:43:21;25.25;52.77
64937;SHT30;51452;47.698;19.050;2022-07-22T04:45:46;25.33;51.61
64937;SHT30;51452;47.698;19.050;2022-07-22T04:48:11;25.47;51.48
64937;SHT30;51452;47.698;19.050;2022-07-22T04:50:37;25.54;51.93
64937;SHT30;51452;47.698;19.050;2022-07-22T04:53:02;25.59;50.13
64937;SHT30;51452;47.698;19.050;2022-07-22T04:55:28;25.66;50.47
64937;SHT30;51452;47.698;19.050;2022-07-22T04:57:53;25.71;52.27
64937;SHT30;51452;47.698;19.050;2022-07-22T05:00:19;25.71;52.25
64937;SHT30;51452;47.698;19.050;2022-07-22T05:02:44;25.83;50.80
64937;SHT30;51452;47.698;19.050;2022-07-22T05:05:10;25.88;49.68
64937;SHT30;51452;47.698;19.050;2022-07-22T05:07:35;25.95;49.92
64937;SHT30;51452;47.698;19.050;2022-07-22T05:10:00;26.05;50.01
64937;SHT30;51452;47.698;19.050;2022-07-22T05:12:26;26.11;48.80
64937;SHT30;51452;47.698;19.050;2022-07-22T05:14:51;26.20;48.63
64937;SHT30;51452;47.698;19.050;2022-07-22T05:17:17;26.25;48.18
64937;SHT30;51452;47.698;19.050;2022-07-22T05:19:42;26.42;49.26
64937;SHT30;51452;47.698;19.050;2022-07-22T05:22:07;26.48;50.04
64937;SHT30;51452;47.698;19.050;2022-07-22T05:24:33;26.56;49.96
64937;SHT30;51452;47.698;19.050;2022-07-22T05:26:58;26.65;50.45
64937;SHT30;51452;47.698;19.050;2022-07-22T05:29:24;26.71;45.15
64937;SHT30;51452;47.698;19.050;2022-07-22T05:31:49;26.78;45.13
64937;SHT30;51452;47.698;19.050;2022-07-22T05:34:15;26.89;43.46
64937;SHT30;51452;47.698;19.050;2022-07-22T05:36:40;27.00;47.04
64937;SHT30;51452;47.698;19.050;2022-07-22T05:39:05;27.07;44.71
64937;SHT30;51452;47.698;19.050;2022-07-22T05:41:31;27.13;45.45
64937;SHT30;51452;47.698;19.050;2022-07-22T05:43:56;27.11;42.46
64937;SHT30;51452;47.698;19.050;2022-07-22T05:46:22;27.17;40.98
64937;SHT30;51452;47.698;19.050;2022-07-22T05:48:47;27.24;38.41
64937;SHT30;51452;47.698;19.050;2022-07-22T05:51:13;27.33;42.41
64937;SHT30;51452;47.698;19.050;2022-07-22T05:53:40;27.43;41.44
64937;SHT30;51452;47.698;19.050;2022-07-22T05:56:06;27.50;41.54
64937;SHT30;51452;47.698;19.050;2022-07-22T05:58:32;27.51;42.23
64937;SHT30;51452;47.698;19.050;2022-07-22T06:00:58;27.53;39.47
64937;SHT30;51452;47.698;19.050;2022-07-22T06:03:23;27.53;38.02
64937;SHT30;51452;47.698;19.050;2022-07-22T06:05:49;27.50;41.90
64937;SHT30;51452;47.698;19.050;2022-07-22T06:08:14;27.55;43.38
64937;SHT30;51452;47.698;19.050;2022-07-22T06:10:40;27.54;43.32
64937;SHT30;51452;47.698;19.050;2022-07-22T06:13:05;27.55;45.77
64937;SHT30;51452;47.698;19.050;2022-07-22T06:15:30;27.55;49.01
64937;SHT30;51452;47.698;19.050;2022-07-22T06:17:56;27.64;49.51
64937;SHT30;51452;47.698;19.050;2022-07-22T06:20:21;27.65;42.29
64937;SHT30;51452;47.698;19.050;2022-07-22T06:22:47;27.68;45.53
64937;SHT30;51452;47.698;19.050;2022-07-22T06:25:12;27.65;42.56
64937;SHT30;51452;47.698;19.050;2022-07-22T06:27:38;27.72;43.70
64937;SHT30;51452;47.698;19.050;2022-07-22T06:30:03;27.74;43.91
64937;SHT30;51452;47.698;19.050;2022-07-22T06:32:29;27.77;40.41
64937;SHT30;51452;47.698;19.050;2022-07-22T06:34:54;27.81;42.52
64937;SHT30;51452;47.698;19.050;2022-07-22T06:37:20;27.84;39.56
64937;SHT30;51452;47.698;19.050;2022-07-22T06:39:45;27.81;39.82
64937;SHT30;51452;47.698;19.050;2022-07-22T06:42:13;27.84;43.78
64937;SHT30;51452;47.698;19.050;2022-07-22T06:44:38;27.86;41.40
64937;SHT30;51452;47.698;19.050;2022-07-22T06:47:04;27.92;40.76
64937;SHT30;51452;47.698;19.050;2022-07-22T06:49:29;27.95;40.74
64937;SHT30;51452;47.698;19.050;2022-07-22T06:51:55;27.88;33.59
64937;SHT30;51452;47.698;19.050;2022-07-22T06:54:20;28.05;38.64
64937;SHT30;51452;47.698;19.050;2022-07-22T06:56:45;27.99;32.76
64937;SHT30;51452;47.698;19.050;2022-07-22T06:59:11;28.12;33.05
64937;SHT30;51452;47.698;19.050;2022-07-22T07:01:36;28.22;33.38
64937;SHT30;51452;47.698;19.050;2022-07-22T07:04:02;28.23;39.99
64937;SHT30;51452;47.698;19.050;2022-07-22T07:06:27;28.20;35.13
64937;SHT30;51452;47.698;19.050;2022-07-22T07:08:53;28.26;32.81
64937;SHT30;51452;47.698;19.050;2022-07-22T07:11:18;28.15;32.00
64937;SHT30;51452;47.698;19.050;2022-07-22T07:13:44;28.12;33.75
64937;SHT30;51452;47.698;19.050;2022-07-22T07:16:10;28.20;34.10
64937;SHT30;51452;47.698;19.050;2022-07-22T07:18:35;28.36;38.59
64937;SHT30;51452;47.698;19.050;2022-07-22T07:21:01;28.26;31.54
64937;SHT30;51452;47.698;19.050;2022-07-22T07:23:28;28.53;34.19
64937;SHT30;51452;47.698;19.050;2022-07-22T07:25:53;28.52;32.82
64937;SHT30;51452;47.698;19.050;2022-07-22T07:28:18;28.71;30.73
64937;SHT30;51452;47.698;19.050;2022-07-22T07:30:44;28.87;30.56
64937;SHT30;51452;47.698;19.050;2022-07-22T07:33:10;29.07;31.77
64937;SHT30;51452;47.698;19.050;2022-07-22T07:35:35;29.31;31.89
64937;SHT30;51452;47.698;19.050;2022-07-22T07:38:00;29.49;33.37
64937;SHT30;51452;47.698;19.050;2022-07-22T07:40:26;29.66;30.20
64937;SHT30;51452;47.698;19.050;2022-07-22T07:42:51;29.73;31.84
64937;SHT30;51452;47.698;19.050;2022-07-22T07:45:17;29.86;31.98
64937;SHT30;51452;47.698;19.050;2022-07-22T07:47:42;29.87;28.77
64937;SHT30;51452;47.698;19.050;2022-07-22T07:50:08;29.86;27.67
64937;SHT30;51452;47.698;19.050;2022-07-22T07:52:40;29.82;28.67
64937;SHT30;51452;47.698;19.050;2022-07-22T07:55:07;29.96;27.17
64937;SHT30;51452;47.698;19.050;2022-07-22T07:57:33;30.10;28.19
64937;SHT30;51452;47.698;19.050;2022-07-22T07:59:58;30.12;27.72
64937;SHT30;51452;47.698;19.050;2022-07-22T08:02:24;29.94;25.84
64937;SHT30;51452;47.698;19.050;2022-07-22T08:04:49;30.09;26.53
64937;SHT30;51452;47.698;19.050;2022-07-22T08:07:14;30.09;27.12
64937;SHT30;51452;47.698;19.050;2022-07-22T08:09:40;30.16;30.19
64937;SHT30;51452;47.698;19.050;2022-07-22T08:12:05;30.13;26.66
64937;SHT30;51452;47.698;19.050;2022-07-22T08:14:31;30.12;27.05
64937;SHT30;51452;47.698;19.050;2022-07-22T08:16:56;30.17;27.75
64937;SHT30;51452;47.698;19.050;2022-07-22T08:19:22;30.34;27.85
64937;SHT30;51452;47.698;19.050;2022-07-22T08:21:47;30.51;28.41
64937;SHT30;51452;47.698;19.050;2022-07-22T08:24:12;30.68;27.86
64937;SHT30;51452;47.698;19.050;2022-07-22T08:26:38;30.71;27.97
64937;SHT30;51452;47.698;19.050;2022-07-22T08:29:04;30.75;27.75
64937;SHT30;51452;47.698;19.050;2022-07-22T08:31:30;30.95;29.02
64937;SHT30;51452;47.698;19.050;2022-07-22T08:34:00;30.78;28.45
64937;SHT30;51452;47.698;19.050;2022-07-22T08:36:25;30.86;28.73
64937;SHT30;51452;47.698;19.050;2022-07-22T08:38:51;30.81;29.44
64937;SHT30;51452;47.698;19.050;2022-07-22T08:41:17;30.75;30.28
64937;SHT30;51452;47.698;19.050;2022-07-22T08:43:43;30.72;27.85
64937;SHT30;51452;47.698;19.050;2022-07-22T08:46:10;30.71;28.66
64937;SHT30;51452;47.698;19.050;2022-07-22T08:48:39;30.78;28.81
64937;SHT30;51452;47.698;19.050;2022-07-22T08:51:05;30.81;27.72
64937;SHT30;51452;47.698;19.050;2022-07-22T08:53:31;30.89;28.78
64937;SHT30;51452;47.698;19.050;2022-07-22T08:55:56;30.96;28.58
64937;SHT30;51452;47.698;19.050;2022-07-22T08:58:24;31.03;30.24
64937;SHT30;51452;47.698;19.050;2022-07-22T09:01:04;31.02;29.46
64937;SHT30;51452;47.698;19.050;2022-07-22T09:03:30;31.26;28.87
64937;SHT30;51452;47.698;19.050;2022-07-22T09:05:55;31.27;28.38
64937;SHT30;51452;47.698;19.050;2022-07-22T09:08:21;31.34;28.90
64937;SHT30;51452;47.698;19.050;2022-07-22T09:10:47;31.37;27.47
64937;SHT30;51452;47.698;19.050;2022-07-22T09:13:14;31.37;27.74
64937;SHT30;51452;47.698;19.050;2022-07-22T09:15:48;31.21;28.24
64937;SHT30;51452;47.698;19.050;2022-07-22T09:18:13;31.18;28.42
64937;SHT30;51452;47.698;19.050;2022-07-22T09:20:39;31.33;27.99
64937;SHT30;51452;47.698;19.050;2022-07-22T09:23:17;31.42;30.25
64937;SHT30;51452;47.698;19.050;2022-07-22T09:25:46;31.40;31.11
64937;SHT30;51452;47.698;19.050;2022-07-22T09:28:15;31.36;29.39
64937;SHT30;51452;47.698;19.050;2022-07-22T09:33:13;31.64;31.76
64937;SHT30;51452;47.698;19.050;2022-07-22T09:35:38;31.69;29.03
64937;SHT30;51452;47.698;19.050;2022-07-22T09:38:07;31.69;28.21
64937;SHT30;51452;47.698;19.050;2022-07-22T09:40:40;31.78;29.38
64937;SHT30;51452;47.698;19.050;2022-07-22T09:43:14;31.80;28.97
64937;SHT30;51452;47.698;19.050;2022-07-22T09:45:48;31.84;31.30
64937;SHT30;51452;47.698;19.050;2022-07-22T09:48:16;31.95;29.30
64937;SHT30;51452;47.698;19.050;2022-07-22T09:50:42;32.05;29.61
64937;SHT30;51452;47.698;19.050;2022-07-22T09:53:08;31.98;30.70
64937;SHT30;51452;47.698;19.050;2022-07-22T09:55:33;32.11;29.45
64937;SHT30;51452;47.698;19.050;2022-07-22T09:57:59;32.24;29.58
64937;SHT30;51452;47.698;19.050;2022-07-22T10:00:26;32.22;29.17
64937;SHT30;51452;47.698;19.050;2022-07-22T10:02:57;32.28;28.61
64937;SHT30;51452;47.698;19.050;2022-07-22T10:05:25;32.38;28.06
64937;SHT30;51452;47.698;19.050;2022-07-22T10:07:51;32.44;28.18
64937;SHT30;51452;47.698;19.050;2022-07-22T10:10:19;32.42;28.85
64937;SHT30;51452;47.698;19.050;2022-07-22T10:12:48;32.32;28.99
64937;SHT30;51452;47.698;19.050;2022-07-22T10:15:13;32.35;29.18
64937;SHT30;51452;47.698;19.050;2022-07-22T10:17:43;32.22;28.39
64937;SHT30;51452;47.698;19.050;2022-07-22T10:20:09;32.49;29.09
64937;SHT30;51452;47.698;19.050;2022-07-22T10:25:08;32.58;29.07
64937;SHT30;51452;47.698;19.050;2022-07-22T10:28:04;32.63;29.50
64937;SHT30;51452;47.698;19.050;2022-07-22T10:30:36;32.79;29.04
64937;SHT30;51452;47.698;19.050;2022-07-22T10:33:11;32.80;28.88
64937;SHT30;51452;47.698;19.050;2022-07-22T10:38:12;32.99;29.26
64937;SHT30;51452;47.698;19.050;2022-07-22T10:46:07;33.13;27.57
64937;SHT30;51452;47.698;19.050;2022-07-22T10:56:27;33.49;27.05
64937;SHT30;51452;47.698;19.050;2022-07-22T10:59:15;33.46;27.07
64937;SHT30;51452;47.698;19.050;2022-07-22T11:01:45;33.39;27.19
64937;SHT30;51452;47.698;19.050;2022-07-22T11:04:21;33.61;27.10
64937;SHT30;51452;47.698;19.050;2022-07-22T11:06:52;33.72;27.59
64937;SHT30;51452;47.698;19.050;2022-07-22T11:09:19;33.84;26.87
64937;SHT30;51452;47.698;19.050;2022-07-22T11:11:54;33.82;27.39
64937;SHT30;51452;47.698;19.050;2022-07-22T11:14:20;33.72;28.26
64937;SHT30;51452;47.698;19.050;2022-07-22T11:16:49;33.91;27.55
64937;SHT30;51452;47.698;19.050;2022-07-22T11:19:21;34.01;28.01
64937;SHT30;51452;47.698;19.050;2022-07-22T11:21:50;34.11;27.27
64937;SHT30;51452;47.698;19.050;2022-07-22T11:24:16;34.13;27.01
64937;SHT30;51452;47.698;19.050;2022-07-22T11:26:47;34.32;26.55
64937;SHT30;51452;47.698;19.050;2022-07-22T11:29:36;34.32;28.86
64937;SHT30;51452;47.698;19.050;2022-07-22T11:32:05;34.42;27.02
64937;SHT30;51452;47.698;19.050;2022-07-22T11:34:31;34.66;27.87
64937;SHT30;51452;47.698;19.050;2022-07-22T11:36:56;34.74;28.24
64937;SHT30;51452;47.698;19.050;2022-07-22T11:39:25;34.87;28.40
64937;SHT30;51452;47.698;19.050;2022-07-22T11:41:52;35.00;26.75
64937;SHT30;51452;47.698;19.050;2022-07-22T11:44:23;34.99;26.70
64937;SHT30;51452;47.698;19.050;2022-07-22T11:46:49;35.13;25.71
64937;SHT30;51452;47.698;19.050;2022-07-22T11:49:17;35.00;26.18
64937;SHT30;51452;47.698;19.050;2022-07-22T11:51:43;34.83;27.55
64937;SHT30;51452;47.698;19.050;2022-07-22T11:54:08;34.87;26.01
64937;SHT30;51452;47.698;19.050;2022-07-22T11:56:34;34.89;26.17
64937;SHT30;51452;47.698;19.050;2022-07-22T11:59:00;34.76;28.05
64937;SHT30;51452;47.698;19.050;2022-07-22T12:01:31;34.76;26.79
64937;SHT30;51452;47.698;19.050;2022-07-22T12:04:04;34.59;26.39
64937;SHT30;51452;47.698;19.050;2022-07-22T12:06:32;34.49;27.63
64937;SHT30;51452;47.698;19.050;2022-07-22T12:09:13;34.09;28.57
64937;SHT30;51452;47.698;19.050;2022-07-22T12:11:40;33.92;27.75
64937;SHT30;51452;47.698;19.050;2022-07-22T12:14:21;33.82;30.27
64937;SHT30;51452;47.698;19.050;2022-07-22T12:17:12;33.74;28.52
64937;SHT30;51452;47.698;19.050;2022-07-22T12:19:39;33.92;29.14
64937;SHT30;51452;47.698;19.050;2022-07-22T12:22:07;33.98;28.91
64937;SHT30;51452;47.698;19.050;2022-07-22T12:24:39;34.02;30.04
64937;SHT30;51452;47.698;19.050;2022-07-22T12:27:06;34.25;32.31
64937;SHT30;51452;47.698;19.050;2022-07-22T12:32:04;34.08;27.76
64937;SHT30;51452;47.698;19.050;2022-07-22T12:34:46;34.38;27.49
64937;SHT30;51452;47.698;19.050;2022-07-22T12:37:18;34.48;28.89
64937;SHT30;51452;47.698;19.050;2022-07-22T12:42:28;34.48;28.11
64937;SHT30;51452;47.698;19.050;2022-07-22T12:45:04;34.45;31.58
64937;SHT30;51452;47.698;19.050;2022-07-22T12:47:39;34.43;30.62
64937;SHT30;51452;47.698;19.050;2022-07-22T12:50:23;34.35;29.77
64937;SHT30;51452;47.698;19.050;2022-07-22T12:52:50;34.26;29.89
64937;SHT30;51452;47.698;19.050;2022-07-22T12:55:16;34.21;29.76
64937;SHT30;51452;47.698;19.050;2022-07-22T12:57:41;34.53;29.89
64937;SHT30;51452;47.698;19.050;2022-07-22T13:00:08;34.52;29.40
64937;SHT30;51452;47.698;19.050;2022-07-22T13:02:34;34.53;30.51
64937;SHT30;51452;47.698;19.050;2022-07-22T13:04:59;34.56;30.95
64937;SHT30;51452;47.698;19.050;2022-07-22T13:07:24;34.55;34.01
64937;SHT30;51452;47.698;19.050;2022-07-22T13:09:50;34.53;33.83
64937;SHT30;51452;47.698;19.050;2022-07-22T13:12:15;34.46;34.15
64937;SHT30;51452;47.698;19.050;2022-07-22T13:14:41;34.28;31.88
64937;SHT30;51452;47.698;19.050;2022-07-22T13:17:06;34.26;30.67
64937;SHT30;51452;47.698;19.050;2022-07-22T13:19:31;34.31;34.58
64937;SHT30;51452;47.698;19.050;2022-07-22T13:21:57;34.05;32.35
64937;SHT30;51452;47.698;19.050;2022-07-22T13:24:22;34.16;29.84
64937;SHT30;51452;47.698;19.050;2022-07-22T13:26:47;34.22;29.87
64937;SHT30;51452;47.698;19.050;2022-07-22T13:29:13;34.33;31.26
64937;SHT30;51452;47.698;19.050;2022-07-22T13:31:38;34.43;29.78
64937;SHT30;51452;47.698;19.050;2022-07-22T13:34:03;34.63;29.99
64937;SHT30;51452;47.698;19.050;2022-07-22T13:36:29;34.74;29.60
64937;SHT30;51452;47.698;19.050;2022-07-22T13:38:58;35.03;31.56
64937;SHT30;51452;47.698;19.050;2022-07-22T13:41:23;35.03;31.42
64937;SHT30;51452;47.698;19.050;2022-07-22T13:43:48;35.21;29.75
64937;SHT30;51452;47.698;19.050;2022-07-22T13:46:14;35.23;28.78
64937;SHT30;51452;47.698;19.050;2022-07-22T13:48:40;35.40;29.43
64937;SHT30;51452;47.698;19.050;2022-07-22T13:51:05;35.33;28.20
64937;SHT30;51452;47.698;19.050;2022-07-22T13:53:31;35.58;28.57
64937;SHT30;51452;47.698;19.050;2022-07-22T13:55:56;35.57;27.03
64937;SHT30;51452;47.698;19.050;2022-07-22T13:58:22;35.75;26.78
64937;SHT30;51452;47.698;19.050;2022-07-22T14:00:47;35.85;26.59
64937;SHT30;51452;47.698;19.050;2022-07-22T14:03:13;35.81;26.68
64937;SHT30;51452;47.698;19.050;2022-07-22T14:05:38;35.96;26.01
64937;SHT30;51452;47.698;19.050;2022-07-22T14:08:04;36.10;26.62
64937;SHT30;51452;47.698;19.050;2022-07-22T14:10:29;36.20;25.43
64937;SHT30;51452;47.698;19.050;2022-07-22T14:12:54;36.23;26.45
64937;SHT30;51452;47.698;19.050;2022-07-22T14:15:20;36.18;27.14
64937;SHT30;51452;47.698;19.050;2022-07-22T14:17:45;36.36;26.67
64937;SHT30;51452;47.698;19.050;2022-07-22T14:20:11;36.19;26.14
64937;SHT30;51452;47.698;19.050;2022-07-22T14:22:36;36.32;26.29
64937;SHT30;51452;47.698;19.050;2022-07-22T14:25:03;36.25;26.35
64937;SHT30;51452;47.698;19.050;2022-07-22T14:27:28;36.06;25.88
64937;SHT30;51452;47.698;19.050;2022-07-22T14:29:54;36.16;25.83
64937;SHT30;51452;47.698;19.050;2022-07-22T14:32:19;36.30;25.93
64937;SHT30;51452;47.698;19.050;2022-07-22T14:34:44;36.19;25.69
64937;SHT30;51452;47.698;19.050;2022-07-22T14:37:10;36.33;25.48
64937;SHT30;51452;47.698;19.050;2022-07-22T14:39:35;36.40;25.19
64937;SHT30;51452;47.698;19.050;2022-07-22T14:42:01;36.46;26.52
64937;SHT30;51452;47.698;19.050;2022-07-22T14:44:26;36.43;26.15
64937;SHT30;51452;47.698;19.050;2022-07-22T14:46:51;36.44;25.60
64937;SHT30;51452;47.698;19.050;2022-07-22T14:49:17;36.33;25.59
64937;SHT30;51452;47.698;19.050;2022-07-22T14:51:44;36.44;24.98
64937;SHT30;51452;47.698;19.050;2022-07-22T14:54:09;36.37;25.02
64937;SHT30;51452;47.698;19.050;2022-07-22T14:56:37;36.26;25.29
64937;SHT30;51452;47.698;19.050;2022-07-22T14:59:03;36.22;25.71
64937;SHT30;51452;47.698;19.050;2022-07-22T15:01:29;36.05;25.87
64937;SHT30;51452;47.698;19.050;2022-07-22T15:03:54;36.13;26.33
64937;SHT30;51452;47.698;19.050;2022-07-22T15:06:19;36.02;26.88
64937;SHT30;51452;47.698;19.050;2022-07-22T15:08:46;35.89;26.95
64937;SHT30;51452;47.698;19.050;2022-07-22T15:11:11;36.00;27.20
64937;SHT30;51452;47.698;19.050;2022-07-22T15:13:36;35.93;26.98
64937;SHT30;51452;47.698;19.050;2022-07-22T15:16:02;35.95;26.52
64937;SHT30;51452;47.698;19.050;2022-07-22T15:18:27;36.09;27.62
64937;SHT30;51452;47.698;19.050;2022-07-22T15:20:53;36.05;26.71
64937;SHT30;51452;47.698;19.050;2022-07-22T15:23:20;36.13;27.04
64937;SHT30;51452;47.698;19.050;2022-07-22T15:25:46;36.03;27.79
64937;SHT30;51452;47.698;19.050;2022-07-22T15:28:11;35.93;29.60
64937;SHT30;51452;47.698;19.050;2022-07-22T15:30:36;36.02;28.65
64937;SHT30;51452;47.698;19.050;2022-07-22T15:33:02;36.08;27.29
64937;SHT30;51452;47.698;19.050;2022-07-22T15:35:27;36.08;27.22
64937;SHT30;51452;47.698;19.050;2022-07-22T15:37:53;36.16;27.86